createdAt,value
2023-04-06T00:01:52.485Z,85.83
2023-04-06T00:04:37.443Z,85.70
2023-04-06T00:07:10.266Z,85.68
2023-04-06T00:09:43.078Z,85.53
2023-04-06T00:12:25.581Z,85.43
2023-04-06T00:15:11.724Z,85.44
2023-04-06T00:18:05.329Z,85.40
2023-04-06T00:20:40.806Z,84.90
2023-04-06T00:23:17.066Z,84.73
2023-04-06T00:25:49.209Z,84.54
2023-04-06T00:28:38.906Z,84.29
2023-04-06T00:31:18.235Z,84.15
2023-04-06T00:33:56.845Z,83.96
2023-04-06T00:36:29.087Z,83.62
2023-04-06T00:39:02.801Z,83.37
2023-04-06T00:41:37.033Z,83.12
2023-04-06T00:44:15.095Z,83.07
2023-04-06T00:46:52.202Z,83.08
2023-04-06T00:49:31.138Z,82.81
2023-04-06T00:52:10.672Z,82.77
2023-04-06T00:54:56.628Z,82.48
2023-04-06T00:57:33.377Z,82.53
2023-04-06T01:00:06.324Z,82.31
2023-04-06T01:02:45.643Z,82.34
2023-04-06T01:05:37.446Z,82.33
2023-04-06T01:08:10.574Z,82.09
2023-04-06T01:10:48.572Z,82.10
2023-04-06T01:13:26.533Z,82.01
2023-04-06T01:16:24.242Z,81.88
2023-04-06T01:19:28.329Z,81.86
2023-04-06T01:22:01.835Z,81.62
2023-04-06T01:24:45.158Z,81.58
2023-04-06T01:27:31.567Z,81.51
2023-04-06T01:30:30.124Z,81.80
2023-04-06T01:33:17.896Z,81.76
2023-04-06T01:36:10.627Z,81.98
2023-04-06T01:39:16.914Z,82.24
2023-04-06T01:41:53.732Z,82.26
2023-04-06T01:44:26.417Z,82.34
2023-04-06T01:47:18.100Z,82.56
2023-04-06T01:50:08.936Z,82.49
2023-04-06T01:52:44.418Z,82.27
2023-04-06T01:55:18.726Z,82.35
2023-04-06T01:58:32.688Z,82.44
2023-04-06T02:01:05.181Z,82.48
2023-04-06T02:03:48.818Z,83.00
2023-04-06T02:06:36.689Z,83.14
2023-04-06T02:09:17.190Z,83.66
2023-04-06T02:11:51.710Z,83.78
2023-04-06T02:14:27.867Z,84.00
2023-04-06T02:17:04.730Z,84.46
2023-04-06T02:19:37.203Z,84.73
2023-04-06T02:22:22.830Z,85.06
2023-04-06T02:24:55.988Z,85.14
2023-04-06T02:41:32.964Z,86.43
2023-04-06T02:44:42.974Z,85.67
2023-04-06T02:47:22.052Z,85.60
2023-04-06T02:49:59.847Z,85.68
2023-04-06T02:52:33.908Z,85.49
2023-04-06T02:55:13.154Z,85.24
2023-04-06T02:58:03.576Z,85.34
2023-04-06T03:01:36.268Z,85.35
2023-04-06T03:04:15.065Z,85.24
2023-04-06T03:07:22.183Z,85.33
2023-04-06T03:09:59.100Z,85.37
2023-04-06T03:15:52.795Z,85.43
2023-04-06T03:18:36.985Z,85.41
2023-04-06T03:21:17.585Z,85.19
2023-04-06T03:27:03.000Z,84.80
2023-04-06T03:29:45.187Z,84.85
2023-04-06T03:33:10.037Z,84.81
2023-04-06T03:36:03.838Z,84.85
2023-04-06T03:38:53.691Z,84.96
2023-04-06T03:41:33.307Z,85.10
2023-04-06T03:44:14.579Z,85.33
2023-04-06T03:46:46.869Z,85.45
2023-04-06T03:49:21.763Z,85.34
2023-04-06T03:52:14.747Z,85.46
2023-04-06T03:55:35.537Z,85.52
2023-04-06T03:58:10.475Z,85.70
2023-04-06T04:00:49.883Z,85.97
2023-04-06T04:16:35.351Z,86.12
2023-04-06T04:22:22.829Z,86.44
2023-04-06T04:25:15.892Z,86.59
2023-04-06T04:27:57.895Z,86.56
2023-04-06T04:30:30.137Z,86.89
2023-04-06T04:33:03.850Z,86.68
2023-04-06T04:35:55.875Z,86.74
2023-04-06T04:39:04.118Z,86.64
2023-04-06T04:42:06.202Z,86.77
2023-04-06T04:45:30.957Z,86.72
2023-04-06T04:48:02.865Z,86.83
2023-04-06T04:50:48.599Z,87.03
2023-04-06T04:54:12.330Z,86.93
2023-04-06T04:56:59.373Z,86.68
2023-04-06T04:59:58.137Z,86.85
2023-04-06T05:02:36.328Z,86.67
2023-04-06T05:06:24.226Z,86.61
2023-04-06T05:09:01.233Z,86.59
2023-04-06T05:11:42.254Z,86.75
2023-04-06T05:15:07.062Z,86.59
2023-04-06T05:17:56.827Z,86.51
2023-04-06T05:20:36.529Z,86.52
2023-04-06T05:23:30.660Z,86.84
2023-04-06T05:26:22.372Z,86.68
2023-04-06T05:29:00.449Z,86.55
2023-04-06T05:31:42.911Z,86.49
2023-04-06T05:34:19.793Z,86.34
2023-04-06T05:36:54.625Z,86.28
2023-04-06T05:39:45.260Z,86.19
2023-04-06T05:42:23.270Z,86.29
2023-04-06T05:45:24.726Z,86.15
2023-04-06T05:48:01.310Z,86.15
2023-04-06T05:50:39.631Z,86.17
2023-04-06T05:53:18.703Z,86.29
2023-04-06T05:55:58.026Z,86.13
2023-04-06T05:58:36.457Z,86.52
2023-04-06T06:01:19.703Z,86.64
2023-04-06T06:08:37.494Z,87.44
2023-04-06T06:11:34.648Z,87.74
2023-04-06T06:14:38.345Z,87.96
2023-04-06T06:17:12.501Z,87.84
2023-04-06T06:19:51.435Z,87.76
2023-04-06T06:22:23.654Z,87.68
2023-04-06T06:25:14.467Z,87.58
2023-04-06T06:27:48.869Z,86.52
2023-04-06T06:30:47.459Z,86.10
2023-04-06T06:34:11.872Z,85.69
2023-04-06T06:36:57.176Z,84.99
2023-04-06T06:39:28.526Z,84.73
2023-04-06T06:43:02.176Z,84.72
2023-04-06T06:45:55.267Z,84.65
2023-04-06T06:48:30.868Z,84.65
2023-04-06T06:51:50.811Z,84.59
2023-04-06T06:54:22.816Z,84.69
2023-04-06T06:57:05.379Z,84.21
2023-04-06T07:00:02.733Z,84.29
2023-04-06T07:03:04.970Z,84.19
2023-04-06T07:05:37.653Z,83.58
2023-04-06T07:08:53.038Z,82.89
2023-04-06T07:11:44.829Z,82.39
2023-04-06T07:14:41.593Z,82.54
2023-04-06T07:17:27.899Z,82.50
2023-04-06T07:20:09.416Z,81.87
2023-04-06T07:22:50.823Z,81.75
2023-04-06T07:30:31.220Z,80.49
2023-04-06T07:33:13.777Z,80.36
2023-04-06T07:35:47.820Z,79.86
2023-04-06T07:38:24.664Z,79.71
2023-04-06T07:41:03.036Z,79.53
2023-04-06T07:44:00.836Z,79.18
2023-04-06T07:46:41.789Z,78.65
2023-04-06T07:49:28.678Z,78.57
2023-04-06T07:52:16.227Z,78.42
2023-04-06T07:54:55.212Z,77.78
2023-04-06T07:57:33.709Z,76.73
2023-04-06T08:00:15.574Z,76.82
2023-04-06T08:02:53.951Z,77.11
2023-04-06T08:05:30.908Z,77.28
2023-04-06T08:08:23.576Z,76.88
2023-04-06T08:10:52.980Z,75.85
2023-04-06T08:14:01.923Z,75.94
2023-04-06T08:17:01.949Z,75.48
2023-04-06T08:19:46.596Z,75.46
2023-04-06T08:26:12.377Z,74.85
2023-04-06T08:28:59.553Z,74.30
2023-04-06T08:32:08.669Z,74.01
2023-04-06T08:34:47.822Z,73.74
2023-04-06T08:37:27.070Z,73.32
2023-04-06T08:40:07.230Z,73.39
2023-04-06T08:43:21.620Z,73.00
2023-04-06T08:46:43.431Z,73.20
2023-04-06T08:50:32.599Z,73.13
2023-04-06T08:53:10.226Z,73.44
2023-04-06T08:56:18.805Z,73.95
2023-04-06T08:59:05.017Z,73.89
2023-04-06T09:02:03.071Z,73.72
2023-04-06T09:04:57.622Z,73.87
2023-04-06T09:07:41.026Z,73.65
2023-04-06T09:10:53.841Z,73.95
2023-04-06T09:14:00.768Z,74.17
2023-04-06T09:16:50.130Z,74.41
2023-04-06T09:19:57.895Z,74.53
2023-04-06T09:22:43.027Z,74.63
2023-04-06T09:25:50.603Z,74.25
2023-04-06T09:29:06.720Z,73.61
2023-04-06T09:31:44.957Z,73.04
2023-04-06T09:35:21.336Z,73.24
2023-04-06T09:38:12.081Z,73.92
2023-04-06T09:41:01.602Z,74.63
2023-04-06T09:43:48.664Z,74.77
2023-04-06T09:47:00.759Z,74.97
2023-04-06T09:50:52.522Z,75.42
2023-04-06T09:53:47.668Z,75.41
2023-04-06T09:56:44.657Z,75.23
2023-04-06T09:59:46.559Z,74.80
2023-04-06T10:03:39.049Z,74.60
2023-04-06T10:07:18.670Z,73.56
2023-04-06T10:14:57.658Z,73.31
2023-04-06T10:18:26.924Z,73.35
2023-04-06T10:26:27.441Z,73.79
2023-04-06T10:34:35.491Z,73.82
2023-04-06T10:41:53.905Z,73.83
2023-04-06T10:45:13.198Z,73.85
2023-04-06T10:48:49.115Z,74.28
2023-04-06T10:51:32.627Z,74.35
2023-04-06T10:54:35.720Z,74.07
2023-04-06T10:57:20.910Z,73.64
2023-04-06T11:05:36.257Z,73.36
2023-04-06T11:08:13.393Z,73.63
2023-04-06T11:12:08.003Z,73.51
2023-04-06T11:15:22.684Z,73.57
2023-04-06T11:18:43.302Z,72.92
2023-04-06T11:21:58.794Z,73.00
2023-04-06T11:24:41.781Z,73.39
2023-04-06T11:28:12.834Z,73.20
2023-04-06T11:31:37.477Z,72.27
2023-04-06T11:35:14.124Z,71.48
2023-04-06T11:42:51.107Z,70.84
2023-04-06T11:45:26.382Z,70.87
2023-04-06T11:49:00.477Z,71.10
2023-04-06T11:52:36.046Z,71.26
2023-04-06T11:59:39.555Z,71.84
2023-04-06T12:02:23.437Z,71.67
2023-04-06T12:09:42.929Z,71.74
2023-04-06T12:12:13.055Z,72.03
2023-04-06T12:14:54.567Z,72.08
2023-04-06T12:18:11.587Z,72.47
2023-04-06T12:20:49.546Z,72.69
2023-04-06T12:24:44.621Z,72.96
2023-04-06T12:28:53.205Z,72.69
2023-04-06T12:31:49.710Z,73.06
2023-04-06T12:39:28.498Z,72.51
2023-04-06T12:43:31.901Z,73.05
2023-04-06T12:46:15.558Z,73.13
2023-04-06T12:49:00.533Z,73.41
2023-04-06T12:51:50.823Z,73.64
2023-04-06T12:55:30.250Z,73.92
2023-04-06T12:58:10.798Z,74.07
2023-04-06T13:01:18.204Z,74.09
2023-04-06T13:04:20.075Z,74.30
2023-04-06T13:21:01.319Z,74.52
2023-04-06T13:24:09.699Z,74.47
2023-04-06T13:31:47.040Z,74.72
2023-04-06T13:35:35.511Z,74.76
2023-04-06T13:39:20.767Z,74.63
2023-04-06T13:42:27.895Z,74.38
2023-04-06T13:45:12.684Z,74.10
2023-04-06T13:48:10.883Z,73.81
2023-04-06T14:05:02.788Z,73.80
2023-04-06T14:08:32.302Z,73.77
2023-04-06T14:16:37.676Z,73.25
2023-04-06T14:19:17.709Z,72.60
2023-04-06T14:30:41.188Z,71.79
2023-04-06T14:38:34.981Z,71.26
2023-04-06T14:42:23.773Z,71.20
2023-04-06T14:45:12.548Z,71.00
2023-04-06T14:48:37.820Z,70.65
2023-04-06T14:51:42.206Z,70.14
2023-04-06T14:55:14.494Z,69.94
2023-04-06T15:00:35.418Z,70.10
2023-04-06T15:03:35.301Z,68.89
2023-04-06T15:06:48.626Z,69.12
2023-04-06T15:10:19.884Z,69.29
2023-04-06T15:13:24.598Z,68.91
2023-04-06T15:16:02.237Z,68.68
2023-04-06T15:19:18.229Z,68.85
2023-04-06T15:22:40.586Z,68.90
2023-04-06T15:25:28.812Z,68.92
2023-04-06T15:28:33.964Z,69.05
2023-04-06T15:32:41.600Z,69.20
2023-04-06T15:36:06.764Z,69.51
2023-04-06T15:43:16.966Z,69.53
2023-04-06T15:47:17.174Z,69.50
2023-04-06T15:54:23.480Z,69.96
2023-04-06T16:01:50.818Z,69.53
2023-04-06T16:05:07.173Z,69.42
2023-04-06T16:17:15.346Z,67.92
2023-04-06T16:25:37.201Z,68.26
2023-04-06T16:33:24.113Z,68.61
2023-04-06T16:37:15.161Z,68.46
2023-04-06T16:45:23.015Z,68.34
2023-04-06T16:48:15.223Z,68.65
2023-04-06T16:51:28.940Z,68.75
2023-04-06T16:58:28.515Z,69.12
2023-04-06T17:05:24.361Z,68.42
2023-04-06T17:07:52.943Z,68.64
2023-04-06T17:10:28.679Z,68.62
2023-04-06T17:13:04.100Z,68.61
2023-04-06T17:15:32.014Z,68.52
2023-04-06T17:17:59.602Z,68.59
2023-04-06T17:20:30.112Z,68.53
2023-04-06T17:22:58.691Z,68.54
2023-04-06T17:25:34.161Z,68.22
2023-04-06T17:28:03.765Z,67.88
2023-04-06T17:30:32.434Z,67.61
2023-04-06T17:33:02.363Z,67.56
2023-04-06T17:35:29.679Z,67.60
2023-04-06T17:37:57.687Z,67.54
2023-04-06T17:40:25.662Z,67.40
2023-04-06T17:42:54.127Z,67.36
2023-04-06T17:45:21.417Z,66.99
2023-04-06T17:47:50.414Z,66.79
2023-04-06T17:50:18.445Z,66.45
2023-04-06T17:52:46.992Z,66.45
2023-04-06T17:55:22.027Z,66.43
2023-04-06T17:57:50.228Z,66.32
2023-04-06T18:00:19.559Z,66.05
2023-04-06T18:03:05.422Z,66.30
2023-04-06T18:05:36.708Z,66.40
2023-04-06T18:08:03.982Z,66.60
2023-04-06T18:10:37.524Z,66.67
2023-04-06T18:32:23.562Z,66.23
2023-04-06T18:39:40.357Z,65.93
2023-04-06T18:42:27.794Z,65.39
2023-04-06T18:49:58.317Z,65.67
2023-04-06T18:53:19.726Z,65.71
2023-04-06T18:56:23.402Z,65.74
2023-04-06T19:06:51.605Z,65.23
2023-04-06T19:09:56.335Z,65.33
2023-04-06T19:16:56.726Z,65.52
2023-04-06T19:19:26.916Z,65.82
2023-04-06T19:22:04.980Z,65.82
2023-04-06T19:25:44.074Z,65.75
2023-04-06T19:28:20.790Z,65.84
2023-04-06T19:32:08.487Z,65.67
2023-04-06T19:35:00.617Z,65.35
2023-04-06T19:37:33.505Z,65.00
2023-04-06T19:40:33.804Z,64.87
2023-04-06T19:43:09.857Z,64.98
2023-04-06T19:45:47.487Z,64.88
2023-04-06T19:48:23.351Z,64.77
2023-04-06T19:51:18.254Z,64.57
2023-04-06T19:53:58.291Z,64.72
2023-04-06T19:56:34.332Z,64.94
2023-04-06T19:59:17.478Z,64.87
2023-04-06T20:02:00.766Z,64.87
2023-04-06T20:04:38.820Z,64.90
2023-04-06T20:07:13.753Z,64.60
2023-04-06T20:09:52.065Z,64.52
2023-04-06T20:12:26.892Z,64.46
2023-04-06T20:15:04.767Z,64.51
2023-04-06T20:17:39.696Z,64.65
2023-04-06T20:20:11.898Z,64.61
2023-04-06T20:23:09.928Z,64.63
2023-04-06T20:25:44.083Z,64.69
2023-04-06T20:28:25.374Z,64.60
2023-04-06T20:31:06.789Z,64.61
2023-04-06T20:33:47.579Z,64.60
2023-04-06T20:36:29.475Z,64.42
2023-04-06T20:39:14.957Z,64.51
2023-04-06T20:45:26.788Z,64.42
2023-04-06T20:48:18.571Z,64.50
2023-04-06T20:50:57.566Z,64.40
2023-04-06T20:53:57.293Z,64.38
2023-04-06T20:56:33.801Z,64.28
2023-04-06T21:02:49.608Z,62.75
2023-04-06T21:05:22.982Z,62.42
2023-04-06T21:08:04.193Z,61.94
2023-04-06T21:10:54.586Z,61.72
2023-04-06T21:13:46.573Z,61.52
2023-04-06T21:16:28.919Z,61.52
2023-04-06T21:19:20.744Z,61.67
2023-04-06T21:22:04.921Z,61.72
2023-04-06T21:24:45.118Z,61.78
2023-04-06T21:27:23.745Z,61.81
2023-04-06T21:30:03.672Z,61.71
2023-04-06T21:32:35.380Z,61.68
2023-04-06T21:35:12.163Z,61.47
2023-04-06T21:38:11.400Z,61.06
2023-04-06T21:40:43.006Z,61.07
2023-04-06T21:43:15.645Z,61.02
2023-04-06T21:45:51.133Z,61.14
2023-04-06T21:54:42.741Z,60.54
2023-04-06T21:57:15.023Z,60.47
2023-04-06T21:59:53.341Z,60.50
2023-04-06T22:02:30.544Z,60.73
2023-04-06T22:05:27.670Z,60.81
2023-04-06T22:08:04.470Z,60.78
2023-04-06T22:10:35.285Z,60.45
2023-04-06T22:13:25.323Z,60.28
2023-04-06T22:16:05.043Z,60.16
2023-04-06T22:18:56.433Z,60.00
2023-04-06T22:21:37.611Z,59.69
2023-04-06T22:24:13.368Z,59.75
2023-04-06T22:26:50.116Z,59.64
2023-04-06T22:29:21.226Z,59.84
2023-04-06T22:32:07.585Z,60.03
2023-04-06T22:34:54.528Z,60.00
2023-04-06T22:37:28.294Z,60.18
2023-04-06T22:39:59.343Z,60.08
2023-04-06T22:42:39.456Z,60.08
2023-04-06T22:45:14.601Z,59.97
2023-04-06T22:47:46.837Z,60.20
2023-04-06T22:50:23.015Z,60.02
2023-04-06T22:53:06.997Z,60.20
2023-04-06T22:55:38.763Z,60.07
2023-04-06T22:58:10.831Z,60.34
2023-04-06T23:00:47.336Z,60.68
2023-04-06T23:03:28.935Z,60.75
2023-04-06T23:06:35.554Z,60.65
2023-04-06T23:09:11.389Z,60.52
2023-04-06T23:11:45.503Z,60.24
2023-04-06T23:14:15.539Z,60.26
2023-04-06T23:16:56.565Z,60.36
2023-04-06T23:19:27.535Z,60.63
2023-04-06T23:21:59.069Z,60.82
2023-04-06T23:27:15.667Z,61.13
2023-04-06T23:29:54.372Z,61.16
2023-04-06T23:32:28.143Z,61.38
2023-04-06T23:35:06.587Z,61.59
2023-04-06T23:37:41.856Z,61.85
2023-04-06T23:40:19.795Z,62.07
2023-04-06T23:42:55.707Z,62.08
2023-04-06T23:45:37.921Z,62.06
2023-04-06T23:48:12.998Z,62.16
2023-04-06T23:50:45.912Z,62.44
2023-04-06T23:53:22.129Z,62.54
2023-04-06T23:56:02.310Z,62.61
2023-04-06T23:58:31.900Z,62.95
